createdAt,value
2023-12-30T00:00:18.181Z,7.98
2023-12-30T00:04:22.745Z,7.83
2023-12-30T00:08:24.397Z,7.81
2023-12-30T00:12:26.011Z,7.82
2023-12-30T00:16:28.332Z,7.95
2023-12-30T00:20:31.452Z,7.99
2023-12-30T00:24:33.015Z,8.01
2023-12-30T00:28:34.763Z,8.15
2023-12-30T00:32:36.464Z,8.13
2023-12-30T00:36:43.968Z,8.16
2023-12-30T00:40:45.870Z,8.25
2023-12-30T00:44:51.460Z,8.18
2023-12-30T00:49:07.701Z,8.16
2023-12-30T00:53:27.584Z,8.13
2023-12-30T00:57:32.394Z,8.28
2023-12-30T01:01:34.268Z,8.29
2023-12-30T01:05:51.444Z,8.33
2023-12-30T01:09:55.704Z,8.30
2023-12-30T01:13:58.243Z,8.34
2023-12-30T01:18:00.025Z,8.33
2023-12-30T01:22:03.749Z,8.34
2023-12-30T01:26:06.697Z,8.32
2023-12-30T01:30:08.637Z,8.24
2023-12-30T01:34:10.375Z,8.22
2023-12-30T01:38:11.970Z,8.24
2023-12-30T01:42:14.972Z,8.24
2023-12-30T01:46:17.085Z,8.39
2023-12-30T01:50:19.137Z,8.31
2023-12-30T01:54:22.244Z,8.38
2023-12-30T01:58:25.448Z,8.33
2023-12-30T02:02:27.886Z,8.39
2023-12-30T02:06:29.695Z,8.37
2023-12-30T02:10:31.346Z,8.26
2023-12-30T02:14:34.322Z,8.18
2023-12-30T02:18:35.955Z,8.14
2023-12-30T02:22:41.910Z,8.12
2023-12-30T02:26:43.518Z,8.09
2023-12-30T02:30:45.092Z,8.05
2023-12-30T02:34:46.855Z,8.01
2023-12-30T02:38:49.737Z,8.07
2023-12-30T02:42:51.476Z,8.09
2023-12-30T02:46:53.225Z,8.18
2023-12-30T02:50:54.738Z,8.29
2023-12-30T02:54:57.657Z,8.22
2023-12-30T02:59:00.655Z,8.22
2023-12-30T03:03:03.150Z,8.32
2023-12-30T03:07:04.912Z,8.26
2023-12-30T03:11:09.220Z,8.26
2023-12-30T03:15:11.192Z,8.16
2023-12-30T03:19:13.006Z,8.20
2023-12-30T03:23:14.667Z,8.18
2023-12-30T03:27:17.676Z,8.15
2023-12-30T03:31:23.622Z,8.32
2023-12-30T03:35:25.285Z,8.29
2023-12-30T03:39:27.825Z,8.24
2023-12-30T03:43:30.746Z,8.16
2023-12-30T03:47:32.432Z,8.35
2023-12-30T03:51:33.986Z,8.17
2023-12-30T03:55:35.585Z,8.31
2023-12-30T03:59:40.340Z,8.15
2023-12-30T04:03:41.982Z,8.19
2023-12-30T04:07:43.611Z,7.98
2023-12-30T04:11:45.342Z,7.96
2023-12-30T04:15:48.243Z,7.81
2023-12-30T04:19:50.294Z,7.69
2023-12-30T04:23:51.915Z,7.61
2023-12-30T04:27:53.511Z,7.66
2023-12-30T04:31:56.704Z,7.68
2023-12-30T04:35:58.270Z,7.70
2023-12-30T04:39:59.817Z,7.69
2023-12-30T04:44:01.393Z,7.74
2023-12-30T04:48:05.461Z,7.70
2023-12-30T04:52:07.284Z,7.68
2023-12-30T04:56:16.063Z,7.74
2023-12-30T05:00:21.886Z,7.74
2023-12-30T05:04:26.689Z,7.75
2023-12-30T05:08:28.304Z,7.71
2023-12-30T05:12:29.898Z,7.62
2023-12-30T05:16:32.317Z,7.71
2023-12-30T05:20:35.316Z,7.69
2023-12-30T05:24:37.373Z,7.62
2023-12-30T05:28:38.856Z,7.74
2023-12-30T05:32:40.546Z,7.77
2023-12-30T05:36:44.652Z,7.75
2023-12-30T05:40:46.199Z,7.39
2023-12-30T05:44:48.807Z,7.70
2023-12-30T05:48:50.890Z,7.77
2023-12-30T05:52:54.116Z,7.77
2023-12-30T05:56:55.793Z,7.82
2023-12-30T06:00:59.752Z,7.83
2023-12-30T06:05:01.419Z,7.85
2023-12-30T06:09:04.616Z,7.74
2023-12-30T06:13:07.513Z,7.87
2023-12-30T06:17:09.066Z,7.90
2023-12-30T06:21:11.038Z,7.88
2023-12-30T06:25:14.093Z,7.84
2023-12-30T06:29:15.743Z,7.83
2023-12-30T06:33:17.811Z,7.81
2023-12-30T06:37:20.591Z,7.70
2023-12-30T06:41:24.912Z,7.61
2023-12-30T06:45:26.933Z,7.64
2023-12-30T06:49:30.161Z,7.64
2023-12-30T06:53:32.081Z,7.59
2023-12-30T06:57:34.967Z,7.50
2023-12-30T07:01:37.995Z,7.50
2023-12-30T07:05:39.736Z,7.64
2023-12-30T07:09:41.315Z,7.62
2023-12-30T07:13:44.266Z,7.62
2023-12-30T07:17:46.152Z,7.71
2023-12-30T07:21:47.977Z,7.80
2023-12-30T07:25:49.646Z,7.74
2023-12-30T07:29:55.094Z,7.86
2023-12-30T07:33:57.020Z,7.83
2023-12-30T07:37:58.922Z,7.69
2023-12-30T07:42:00.578Z,7.73
2023-12-30T07:46:03.962Z,7.81
2023-12-30T07:50:07.563Z,7.70
2023-12-30T07:54:09.199Z,7.64
2023-12-30T07:58:10.992Z,7.76
2023-12-30T08:02:15.841Z,7.72
2023-12-30T08:06:17.600Z,7.58
2023-12-30T08:10:21.580Z,7.61
2023-12-30T08:14:23.189Z,7.66
2023-12-30T08:18:26.220Z,7.61
2023-12-30T08:22:28.151Z,7.57
2023-12-30T08:26:29.990Z,7.70
2023-12-30T08:30:31.597Z,7.78
2023-12-30T08:34:34.676Z,7.72
2023-12-30T08:38:36.560Z,7.86
2023-12-30T08:42:39.785Z,7.79
2023-12-30T08:46:41.577Z,7.90
2023-12-30T08:50:44.543Z,7.96
2023-12-30T08:54:46.826Z,8.03
2023-12-30T08:58:49.146Z,8.24
2023-12-30T09:02:50.755Z,8.16
2023-12-30T09:06:53.881Z,8.36
2023-12-30T09:10:55.662Z,8.30
2023-12-30T09:14:57.290Z,8.42
2023-12-30T09:18:59.227Z,8.51
2023-12-30T09:23:10.827Z,8.62
2023-12-30T09:27:13.313Z,8.82
2023-12-30T09:31:16.112Z,8.82
2023-12-30T09:35:17.721Z,8.87
2023-12-30T09:39:27.529Z,9.06
2023-12-30T09:43:29.598Z,9.17
2023-12-30T09:47:38.034Z,9.13
2023-12-30T09:51:40.137Z,9.19
2023-12-30T09:55:44.064Z,9.25
2023-12-30T09:59:48.216Z,9.30
2023-12-30T10:03:50.246Z,9.33
2023-12-30T10:07:52.982Z,9.28
2023-12-30T10:11:56.193Z,9.37
2023-12-30T10:15:59.933Z,9.27
2023-12-30T10:20:01.728Z,9.28
2023-12-30T10:24:11.091Z,9.26
2023-12-30T10:28:14.202Z,9.44
2023-12-30T10:32:21.724Z,9.61
2023-12-30T10:36:23.651Z,9.49
2023-12-30T10:40:25.680Z,9.71
2023-12-30T10:44:28.626Z,10.08
2023-12-30T10:48:31.777Z,10.20
2023-12-30T10:52:36.814Z,10.60
2023-12-30T10:56:45.406Z,10.62
2023-12-30T11:00:53.057Z,10.52
2023-12-30T11:04:56.386Z,10.68
2023-12-30T11:08:59.687Z,10.82
2023-12-30T11:13:01.992Z,11.06
2023-12-30T11:17:05.321Z,11.15
2023-12-30T11:21:07.354Z,11.52
2023-12-30T11:25:09.688Z,11.97
2023-12-30T11:29:12.559Z,11.64
2023-12-30T11:33:15.760Z,11.56
2023-12-30T11:37:19.370Z,11.46
2023-12-30T11:41:20.942Z,11.29
2023-12-30T11:45:22.528Z,11.24
2023-12-30T11:49:26.738Z,11.13
2023-12-30T11:53:33.937Z,11.32
2023-12-30T11:57:37.191Z,12.03
2023-12-30T12:01:39.303Z,12.21
2023-12-30T12:05:42.455Z,12.52
2023-12-30T12:09:44.322Z,12.34
2023-12-30T12:13:46.029Z,12.07
2023-12-30T12:17:50.527Z,12.13
2023-12-30T12:22:00.034Z,12.10
2023-12-30T12:26:01.832Z,12.11
2023-12-30T12:30:04.067Z,12.04
2023-12-30T12:34:20.618Z,11.93
2023-12-30T12:38:23.642Z,12.00
2023-12-30T12:42:30.711Z,11.80
2023-12-30T12:46:33.205Z,11.52
2023-12-30T12:50:35.112Z,11.38
2023-12-30T12:54:38.054Z,11.22
2023-12-30T12:58:40.000Z,11.19
2023-12-30T13:02:41.756Z,11.01
2023-12-30T13:06:43.564Z,10.94
2023-12-30T13:10:46.515Z,11.02
2023-12-30T13:14:48.538Z,10.94
2023-12-30T13:18:50.291Z,11.01
2023-12-30T13:22:51.878Z,10.87
2023-12-30T13:26:55.031Z,10.79
2023-12-30T13:30:57.380Z,10.76
2023-12-30T13:34:59.489Z,10.66
2023-12-30T13:39:01.246Z,10.54
2023-12-30T13:43:04.476Z,10.42
2023-12-30T13:47:06.259Z,10.38
2023-12-30T13:51:08.144Z,10.46
2023-12-30T13:55:09.919Z,10.30
2023-12-30T13:59:13.373Z,10.23
2023-12-30T14:03:15.280Z,10.16
2023-12-30T14:07:16.998Z,10.18
2023-12-30T14:11:18.925Z,10.12
2023-12-30T14:15:21.812Z,9.99
2023-12-30T14:19:23.620Z,9.87
2023-12-30T14:23:26.306Z,9.98
2023-12-30T14:27:28.085Z,10.05
2023-12-30T14:31:31.049Z,10.03
2023-12-30T14:35:32.601Z,9.88
2023-12-30T14:39:34.354Z,9.80
2023-12-30T14:43:36.990Z,9.84
2023-12-30T14:47:40.970Z,9.67
2023-12-30T14:51:42.618Z,9.65
2023-12-30T14:55:44.226Z,9.47
2023-12-30T14:59:45.901Z,9.57
2023-12-30T15:03:50.316Z,9.48
2023-12-30T15:07:55.764Z,9.43
2023-12-30T15:11:59.653Z,9.55
2023-12-30T15:16:01.369Z,9.40
2023-12-30T15:20:05.241Z,9.41
2023-12-30T15:24:07.057Z,9.41
2023-12-30T15:28:09.427Z,9.39
2023-12-30T15:32:12.607Z,9.23
2023-12-30T15:36:15.668Z,9.00
2023-12-30T15:40:17.544Z,8.88
2023-12-30T15:44:19.475Z,8.65
2023-12-30T15:48:21.843Z,8.55
2023-12-30T15:52:25.640Z,8.56
2023-12-30T15:56:29.646Z,8.33
2023-12-30T16:00:31.360Z,8.14
2023-12-30T16:04:33.070Z,7.93
2023-12-30T16:08:37.465Z,8.10
2023-12-30T16:12:39.059Z,8.04
2023-12-30T16:16:41.098Z,8.17
2023-12-30T16:20:42.787Z,7.98
2023-12-30T16:24:45.784Z,7.91
2023-12-30T16:28:47.759Z,7.91
2023-12-30T16:32:49.629Z,7.94
2023-12-30T16:36:51.355Z,7.88
2023-12-30T16:40:54.464Z,7.96
2023-12-30T16:44:56.196Z,7.93
2023-12-30T16:48:57.751Z,7.93
2023-12-30T16:52:59.397Z,7.92
2023-12-30T16:57:02.688Z,7.73
2023-12-30T17:01:04.333Z,7.60
2023-12-30T17:05:06.767Z,7.71
2023-12-30T17:09:08.429Z,7.65
2023-12-30T17:13:11.468Z,7.45
2023-12-30T17:17:14.089Z,7.51
2023-12-30T17:21:15.849Z,7.32
2023-12-30T17:25:17.551Z,7.35
2023-12-30T17:29:21.001Z,7.31
2023-12-30T17:33:22.715Z,7.18
2023-12-30T17:37:24.513Z,7.13
2023-12-30T17:41:26.807Z,7.35
2023-12-30T17:45:29.688Z,7.25
2023-12-30T17:49:31.307Z,7.32
2023-12-30T17:53:33.073Z,7.36
2023-12-30T17:57:34.901Z,7.13
2023-12-30T18:01:37.877Z,7.14
2023-12-30T18:05:39.713Z,6.96
2023-12-30T18:09:42.122Z,6.88
2023-12-30T18:13:45.473Z,6.80
2023-12-30T18:17:49.311Z,6.77
2023-12-30T18:21:51.949Z,6.78
2023-12-30T18:25:53.681Z,6.66
2023-12-30T18:29:56.507Z,6.78
2023-12-30T18:33:59.454Z,6.85
2023-12-30T18:38:01.034Z,6.84
2023-12-30T18:42:03.880Z,6.98
2023-12-30T18:46:05.883Z,7.04
2023-12-30T18:50:09.352Z,7.10
2023-12-30T18:54:10.961Z,7.22
2023-12-30T18:58:14.113Z,7.47
2023-12-30T19:02:16.946Z,7.48
2023-12-30T19:06:22.619Z,7.52
2023-12-30T19:10:24.504Z,7.57
2023-12-30T19:14:26.256Z,7.59
2023-12-30T19:18:27.970Z,7.39
2023-12-30T19:22:32.276Z,7.49
2023-12-30T19:26:34.185Z,7.56
2023-12-30T19:30:36.049Z,7.59
2023-12-30T19:34:37.725Z,7.62
2023-12-30T19:38:41.230Z,7.39
2023-12-30T19:42:43.966Z,7.61
2023-12-30T19:46:45.609Z,7.54
2023-12-30T19:50:47.446Z,7.63
2023-12-30T19:54:50.264Z,7.67
2023-12-30T19:58:52.038Z,7.57
2023-12-30T20:02:53.614Z,7.71
2023-12-30T20:06:55.485Z,7.62
2023-12-30T20:10:58.703Z,7.77
2023-12-30T20:15:00.354Z,7.86
2023-12-30T20:19:02.020Z,7.89
2023-12-30T20:23:03.959Z,8.06
2023-12-30T20:27:07.404Z,8.05
2023-12-30T20:31:09.721Z,8.07
2023-12-30T20:35:11.819Z,8.12
2023-12-30T20:39:17.057Z,8.11
2023-12-30T20:43:20.513Z,8.14
2023-12-30T20:47:22.080Z,8.09
2023-12-30T20:51:25.057Z,8.15
2023-12-30T20:55:26.982Z,8.13
2023-12-30T20:59:29.925Z,8.06
2023-12-30T21:03:32.136Z,8.08
2023-12-30T21:07:34.108Z,7.96
2023-12-30T21:11:36.164Z,7.97
2023-12-30T21:15:39.754Z,7.90
2023-12-30T21:19:41.440Z,7.93
2023-12-30T21:23:43.257Z,7.96
2023-12-30T21:27:44.879Z,8.05
2023-12-30T21:31:47.952Z,8.10
2023-12-30T21:35:49.699Z,8.01
2023-12-30T21:39:51.275Z,7.88
2023-12-30T21:43:54.113Z,7.91
2023-12-30T21:47:57.135Z,7.78
2023-12-30T21:51:58.819Z,7.96
2023-12-30T21:56:00.451Z,7.90
2023-12-30T22:00:02.156Z,7.67
2023-12-30T22:04:05.958Z,7.72
2023-12-30T22:08:07.764Z,7.64
2023-12-30T22:12:09.322Z,7.68
2023-12-30T22:16:11.938Z,7.67
2023-12-30T22:20:14.949Z,7.62
2023-12-30T22:24:16.573Z,7.76
2023-12-30T22:28:18.215Z,7.84
2023-12-30T22:32:21.031Z,8.02
2023-12-30T22:36:28.026Z,8.11
2023-12-30T22:40:29.892Z,8.26
2023-12-30T22:44:31.524Z,8.23
2023-12-30T22:48:33.170Z,8.25
2023-12-30T22:52:36.769Z,8.29
2023-12-30T22:56:38.348Z,8.24
2023-12-30T23:00:40.164Z,8.29
2023-12-30T23:04:41.899Z,8.41
2023-12-30T23:08:44.821Z,8.54
2023-12-30T23:12:46.490Z,8.57
2023-12-30T23:16:48.445Z,8.62
2023-12-30T23:20:50.160Z,8.61
2023-12-30T23:24:53.116Z,8.57
2023-12-30T23:28:55.912Z,8.60
2023-12-30T23:32:57.487Z,8.61
2023-12-30T23:36:59.308Z,8.59
2023-12-30T23:41:02.490Z,8.60
2023-12-30T23:45:05.072Z,8.52
2023-12-30T23:49:06.826Z,8.46
2023-12-30T23:53:08.419Z,8.41
2023-12-30T23:57:11.394Z,8.28
